createdAt,value
2023-01-26T00:01:38.733Z,98615.06
2023-01-26T00:04:08.967Z,98609.59
2023-01-26T00:06:39.429Z,98607.06
2023-01-26T00:09:17.382Z,98602.28
2023-01-26T00:11:47.685Z,98595.22
2023-01-26T00:14:19.479Z,98591.78
2023-01-26T00:16:49.938Z,98592.94
2023-01-26T00:19:20.142Z,98594.78
2023-01-26T00:21:50.305Z,98595.59
2023-01-26T00:24:23.408Z,98583.13
2023-01-26T00:26:53.579Z,98584.41
2023-01-26T00:29:24.311Z,98580.84
2023-01-26T00:31:54.669Z,98570.81
2023-01-26T00:34:25.284Z,98566.00
2023-01-26T00:36:55.626Z,98562.34
2023-01-26T00:39:29.767Z,98550.22
2023-01-26T00:42:10.101Z,98558.44
2023-01-26T00:44:41.861Z,98550.66
2023-01-26T00:47:15.440Z,98550.81
2023-01-26T00:49:45.850Z,98548.78
2023-01-26T00:52:16.761Z,98548.25
2023-01-26T00:54:49.786Z,98536.91
2023-01-26T00:57:19.927Z,98539.81
2023-01-26T00:59:50.184Z,98534.69
2023-01-26T01:02:20.831Z,98538.69
2023-01-26T01:04:53.088Z,98533.22
2023-01-26T01:07:23.253Z,98533.25
2023-01-26T01:09:56.186Z,98537.50
2023-01-26T01:12:26.875Z,98532.91
2023-01-26T01:14:58.373Z,98530.03
2023-01-26T01:17:29.070Z,98529.13
2023-01-26T01:19:59.249Z,98530.72
2023-01-26T01:22:29.468Z,98529.13
2023-01-26T01:25:02.707Z,98531.44
2023-01-26T01:27:32.869Z,98521.19
2023-01-26T01:30:07.691Z,98537.84
2023-01-26T01:32:40.206Z,98529.75
2023-01-26T01:35:11.733Z,98533.75
2023-01-26T01:37:42.057Z,98529.81
2023-01-26T01:40:17.866Z,98525.97
2023-01-26T01:42:51.747Z,98525.59
2023-01-26T01:45:44.549Z,98516.38
2023-01-26T01:48:25.365Z,98518.06
2023-01-26T01:51:00.447Z,98510.31
2023-01-26T01:53:36.587Z,98523.47
2023-01-26T01:56:15.139Z,98520.03
2023-01-26T01:58:47.188Z,98511.84
2023-01-26T02:01:17.642Z,98517.09
2023-01-26T02:03:54.209Z,98515.38
2023-01-26T02:06:31.365Z,98504.31
2023-01-26T02:09:03.065Z,98516.19
2023-01-26T02:11:41.300Z,98509.31
2023-01-26T02:14:16.286Z,98502.03
2023-01-26T02:16:47.003Z,98505.75
2023-01-26T02:19:25.432Z,98499.59
2023-01-26T02:22:00.938Z,98492.50
2023-01-26T02:24:39.285Z,98497.22
2023-01-26T02:27:12.308Z,98493.22
2023-01-26T02:29:42.715Z,98495.13
2023-01-26T02:32:13.331Z,98490.22
2023-01-26T02:34:43.403Z,98481.06
2023-01-26T02:37:17.602Z,98474.56
2023-01-26T02:39:55.959Z,98479.69
2023-01-26T02:42:42.253Z,98471.72
2023-01-26T02:45:16.078Z,98475.88
2023-01-26T02:47:48.060Z,98465.63
2023-01-26T02:50:16.746Z,98469.94
2023-01-26T02:52:48.235Z,98465.88
2023-01-26T02:55:28.858Z,98470.66
2023-01-26T02:58:05.834Z,98471.31
2023-01-26T03:00:42.202Z,98471.69
2023-01-26T03:03:19.279Z,98464.03
2023-01-26T03:05:49.935Z,98461.28
2023-01-26T03:08:20.665Z,98451.41
2023-01-26T03:10:50.838Z,98448.91
2023-01-26T03:13:23.779Z,98448.09
2023-01-26T03:15:55.780Z,98437.59
2023-01-26T03:18:39.409Z,98439.44
2023-01-26T03:21:28.075Z,98434.88
2023-01-26T03:24:10.783Z,98434.66
2023-01-26T03:26:55.079Z,98442.63
2023-01-26T03:29:29.481Z,98425.19
2023-01-26T03:32:02.741Z,98430.56
2023-01-26T03:34:33.846Z,98430.56
2023-01-26T03:37:04.231Z,98430.09
2023-01-26T03:39:55.907Z,98434.41
2023-01-26T03:42:39.476Z,98427.25
2023-01-26T03:45:26.884Z,98432.28
2023-01-26T03:48:18.621Z,98425.56
2023-01-26T03:51:01.506Z,98429.88
2023-01-26T03:53:44.041Z,98428.31
2023-01-26T03:56:22.319Z,98434.13
2023-01-26T03:58:57.452Z,98428.41
2023-01-26T04:01:33.350Z,98437.88
2023-01-26T04:04:16.759Z,98436.94
2023-01-26T04:07:03.956Z,98438.16
2023-01-26T04:09:35.315Z,98435.78
2023-01-26T04:12:07.797Z,98435.31
2023-01-26T04:14:55.496Z,98433.81
2023-01-26T04:17:44.343Z,98429.25
2023-01-26T04:20:27.641Z,98420.81
2023-01-26T04:22:57.671Z,98435.44
2023-01-26T04:25:27.789Z,98423.13
2023-01-26T04:28:00.140Z,98417.31
2023-01-26T04:30:30.272Z,98416.41
2023-01-26T04:33:03.143Z,98419.72
2023-01-26T04:35:33.573Z,98421.94
2023-01-26T04:38:04.159Z,98415.09
2023-01-26T04:40:34.923Z,98420.59
2023-01-26T04:43:06.112Z,98411.81
2023-01-26T04:45:37.308Z,98412.47
2023-01-26T04:48:10.456Z,98413.47
2023-01-26T04:50:40.544Z,98406.66
2023-01-26T04:53:10.819Z,98399.03
2023-01-26T04:55:40.950Z,98391.53
2023-01-26T04:58:11.338Z,98402.81
2023-01-26T05:00:41.738Z,98402.81
2023-01-26T05:03:15.575Z,98403.25
2023-01-26T05:05:45.763Z,98400.97
2023-01-26T05:08:15.828Z,98391.88
2023-01-26T05:10:46.348Z,98395.72
2023-01-26T05:13:23.905Z,98398.81
2023-01-26T05:16:14.088Z,98401.34
2023-01-26T05:19:07.059Z,98403.72
2023-01-26T05:21:55.741Z,98399.06
2023-01-26T05:24:26.495Z,98399.28
2023-01-26T05:27:26.635Z,98396.97
2023-01-26T05:30:03.234Z,98404.84
2023-01-26T05:32:37.141Z,98406.41
2023-01-26T05:35:11.818Z,98408.06
2023-01-26T05:37:42.806Z,98413.28
2023-01-26T05:40:16.568Z,98414.09
2023-01-26T05:42:47.958Z,98409.84
2023-01-26T05:45:25.541Z,98412.78
2023-01-26T05:47:59.498Z,98418.94
2023-01-26T05:50:32.528Z,98409.59
2023-01-26T05:53:17.442Z,98410.72
2023-01-26T05:55:48.138Z,98416.09
2023-01-26T05:58:18.673Z,98411.97
2023-01-26T06:00:49.049Z,98414.63
2023-01-26T06:03:26.534Z,98415.28
2023-01-26T06:06:00.000Z,98410.28
2023-01-26T06:08:40.272Z,98413.22
2023-01-26T06:11:43.131Z,98420.53
2023-01-26T06:14:24.899Z,98421.75
2023-01-26T06:16:57.000Z,98420.41
2023-01-26T06:19:28.286Z,98420.97
2023-01-26T06:22:05.343Z,98425.53
2023-01-26T06:24:35.604Z,98414.84
2023-01-26T06:27:07.643Z,98418.22
2023-01-26T06:29:38.288Z,98417.44
2023-01-26T06:32:09.395Z,98415.72
2023-01-26T06:34:39.640Z,98425.25
2023-01-26T06:37:14.076Z,98425.38
2023-01-26T06:39:44.634Z,98427.63
2023-01-26T06:42:15.438Z,98424.34
2023-01-26T06:44:46.811Z,98426.09
2023-01-26T06:47:16.959Z,98428.75
2023-01-26T06:49:48.268Z,98421.13
2023-01-26T06:52:34.131Z,98419.38
2023-01-26T06:55:20.264Z,98422.06
2023-01-26T06:57:57.173Z,98419.34
2023-01-26T07:00:45.864Z,98414.75
2023-01-26T07:03:17.097Z,98426.16
2023-01-26T07:05:47.390Z,98419.13
2023-01-26T07:08:20.027Z,98415.56
2023-01-26T07:10:50.302Z,98425.47
2023-01-26T07:13:20.701Z,98430.00
2023-01-26T07:15:50.854Z,98421.03
2023-01-26T07:18:21.122Z,98424.44
2023-01-26T07:20:51.313Z,98433.31
2023-01-26T07:23:24.406Z,98432.47
2023-01-26T07:25:55.048Z,98431.38
2023-01-26T07:28:26.004Z,98432.94
2023-01-26T07:30:56.512Z,98438.88
2023-01-26T07:33:26.713Z,98438.66
2023-01-26T07:35:57.473Z,98435.75
2023-01-26T07:38:31.691Z,98442.34
2023-01-26T07:41:02.146Z,98446.28
2023-01-26T07:43:32.248Z,98441.88
2023-01-26T07:46:02.482Z,98441.06
2023-01-26T07:48:34.605Z,98443.50
2023-01-26T07:51:09.362Z,98442.97
2023-01-26T07:53:43.863Z,98441.16
2023-01-26T07:56:19.351Z,98439.94
2023-01-26T07:58:54.034Z,98444.34
2023-01-26T08:01:25.563Z,98439.34
2023-01-26T08:03:56.538Z,98438.00
2023-01-26T08:06:26.949Z,98436.84
2023-01-26T08:09:00.006Z,98432.50
2023-01-26T08:11:30.179Z,98435.28
2023-01-26T08:14:01.005Z,98434.59
2023-01-26T08:16:32.188Z,98434.88
2023-01-26T08:19:03.350Z,98431.72
2023-01-26T08:21:33.865Z,98437.28
2023-01-26T08:24:07.409Z,98436.72
2023-01-26T08:26:37.691Z,98430.22
2023-01-26T08:29:08.182Z,98426.91
2023-01-26T08:31:39.088Z,98422.22
2023-01-26T08:34:10.145Z,98431.59
2023-01-26T08:36:41.693Z,98424.63
2023-01-26T08:39:14.555Z,98431.97
2023-01-26T08:41:47.282Z,98425.84
2023-01-26T08:44:17.497Z,98427.38
2023-01-26T08:46:47.772Z,98425.38
2023-01-26T08:49:17.820Z,98426.28
2023-01-26T08:51:48.075Z,98421.84
2023-01-26T08:54:21.396Z,98419.66
2023-01-26T08:56:51.484Z,98417.66
2023-01-26T08:59:21.881Z,98415.84
2023-01-26T09:01:52.493Z,98417.13
2023-01-26T09:04:22.737Z,98413.28
2023-01-26T09:06:52.896Z,98410.44
2023-01-26T09:09:25.822Z,98408.72
2023-01-26T09:11:59.018Z,98405.97
2023-01-26T09:14:29.517Z,98409.38
2023-01-26T09:16:59.660Z,98417.81
2023-01-26T09:19:31.121Z,98407.59
2023-01-26T09:22:01.477Z,98410.63
2023-01-26T09:24:34.600Z,98410.63
2023-01-26T09:27:04.705Z,98418.59
2023-01-26T09:29:35.018Z,98419.97
2023-01-26T09:32:05.395Z,98418.19
2023-01-26T09:34:35.662Z,98424.03
2023-01-26T09:37:06.168Z,98425.84
2023-01-26T09:39:38.982Z,98425.97
2023-01-26T09:42:40.899Z,98435.28
2023-01-26T09:45:33.466Z,98431.50
2023-01-26T09:48:25.589Z,98433.91
2023-01-26T09:51:06.444Z,98433.13
2023-01-26T09:53:49.642Z,98436.88
2023-01-26T09:56:28.511Z,98437.69
2023-01-26T09:59:03.874Z,98433.97
2023-01-26T10:01:43.756Z,98427.00
2023-01-26T10:04:24.521Z,98436.88
2023-01-26T10:06:58.447Z,98430.84
2023-01-26T10:09:51.692Z,98430.47
2023-01-26T10:12:30.514Z,98420.50
2023-01-26T10:15:08.669Z,98427.94
2023-01-26T10:17:42.925Z,98430.56
2023-01-26T10:20:30.650Z,98435.53
2023-01-26T10:23:07.519Z,98442.16
2023-01-26T10:25:44.419Z,98427.88
2023-01-26T10:28:20.975Z,98423.94
2023-01-26T10:30:52.233Z,98429.91
2023-01-26T10:33:27.679Z,98428.88
2023-01-26T10:35:58.681Z,98425.53
2023-01-26T10:38:44.413Z,98431.81
2023-01-26T10:41:31.143Z,98435.38
2023-01-26T10:44:08.004Z,98426.47
2023-01-26T10:46:41.311Z,98420.53
2023-01-26T10:49:19.795Z,98422.03
2023-01-26T10:52:11.093Z,98426.22
2023-01-26T10:54:44.067Z,98427.38
2023-01-26T10:57:24.258Z,98425.97
2023-01-26T11:00:01.826Z,98423.41
2023-01-26T11:02:34.212Z,98425.69
2023-01-26T11:05:22.037Z,98424.19
2023-01-26T11:07:59.015Z,98419.16
2023-01-26T11:10:36.815Z,98416.53
2023-01-26T11:13:19.548Z,98416.22
2023-01-26T11:16:03.611Z,98408.03
2023-01-26T11:18:49.653Z,98412.00
2023-01-26T11:21:28.132Z,98408.13
2023-01-26T11:24:07.735Z,98404.91
2023-01-26T11:27:17.202Z,98398.56
2023-01-26T11:30:17.202Z,98400.28
2023-01-26T11:33:02.012Z,98398.94
2023-01-26T11:35:42.527Z,98393.69
2023-01-26T11:38:47.514Z,98391.19
2023-01-26T11:41:32.222Z,98396.16
2023-01-26T11:44:24.531Z,98396.16
2023-01-26T11:47:21.152Z,98390.44
2023-01-26T11:50:25.463Z,98393.47
2023-01-26T11:53:20.822Z,98391.78
2023-01-26T11:56:09.094Z,98391.66
2023-01-26T11:58:49.490Z,98379.38
2023-01-26T12:01:29.324Z,98381.88
2023-01-26T12:04:00.741Z,98376.09
2023-01-26T12:06:41.268Z,98373.41
2023-01-26T12:09:23.002Z,98371.38
2023-01-26T12:12:00.661Z,98372.63
2023-01-26T12:14:39.463Z,98371.28
2023-01-26T12:17:30.186Z,98366.03
2023-01-26T12:20:14.577Z,98357.03
2023-01-26T12:22:57.196Z,98358.63
2023-01-26T12:25:38.183Z,98357.94
2023-01-26T12:28:19.714Z,98352.50
2023-01-26T12:31:01.246Z,98344.75
2023-01-26T12:33:32.495Z,98350.66
2023-01-26T12:36:28.524Z,98349.53
2023-01-26T12:39:23.927Z,98344.53
2023-01-26T12:42:20.524Z,98340.06
2023-01-26T12:44:59.849Z,98336.28
2023-01-26T12:47:37.226Z,98333.00
2023-01-26T12:50:15.880Z,98320.50
2023-01-26T12:52:53.109Z,98322.72
2023-01-26T12:55:32.175Z,98318.81
2023-01-26T12:58:06.772Z,98309.09
2023-01-26T13:00:40.471Z,98323.22
2023-01-26T13:03:25.301Z,98322.78
2023-01-26T13:06:02.219Z,98327.22
2023-01-26T13:09:04.365Z,98326.22
2023-01-26T13:11:53.105Z,98316.53
2023-01-26T13:15:03.949Z,98318.06
2023-01-26T13:18:01.602Z,98315.31
2023-01-26T13:20:48.402Z,98316.00
2023-01-26T13:23:44.880Z,98311.91
2023-01-26T13:26:26.607Z,98313.34
2023-01-26T13:29:37.155Z,98314.84
2023-01-26T13:32:59.865Z,98302.13
2023-01-26T13:35:32.659Z,98305.22
2023-01-26T13:38:17.918Z,98309.59
2023-01-26T13:40:50.881Z,98312.81
2023-01-26T13:43:34.216Z,98305.09
2023-01-26T13:46:29.505Z,98305.19
2023-01-26T13:49:00.080Z,98311.19
2023-01-26T13:51:32.764Z,98309.16
2023-01-26T13:54:07.896Z,98312.59
2023-01-26T13:56:40.595Z,98309.97
2023-01-26T13:59:15.382Z,98309.88
2023-01-26T14:01:51.718Z,98320.34
2023-01-26T14:04:24.664Z,98315.56
2023-01-26T14:06:59.543Z,98318.06
2023-01-26T14:09:33.326Z,98314.31
2023-01-26T14:12:09.756Z,98306.13
2023-01-26T14:14:41.429Z,98317.13
2023-01-26T14:17:31.672Z,98316.72
2023-01-26T14:20:19.653Z,98318.31
2023-01-26T14:23:05.417Z,98321.94
2023-01-26T14:25:39.924Z,98315.22
2023-01-26T14:28:18.651Z,98323.84
2023-01-26T14:31:08.401Z,98320.09
2023-01-26T14:33:41.752Z,98323.47
2023-01-26T14:36:19.718Z,98321.44
2023-01-26T14:38:52.743Z,98332.38
2023-01-26T14:41:28.685Z,98325.47
2023-01-26T14:44:04.163Z,98334.91
2023-01-26T14:46:43.806Z,98329.47
2023-01-26T14:49:24.943Z,98339.22
2023-01-26T14:52:01.296Z,98338.66
2023-01-26T14:54:37.127Z,98338.75
2023-01-26T14:57:10.165Z,98333.06
2023-01-26T14:59:43.943Z,98342.63
2023-01-26T15:02:20.417Z,98340.16
2023-01-26T15:05:01.326Z,98347.88
2023-01-26T15:07:40.885Z,98348.88
2023-01-26T15:10:38.708Z,98342.16
2023-01-26T15:13:24.991Z,98343.78
2023-01-26T15:16:08.906Z,98348.53
2023-01-26T15:18:39.032Z,98350.28
2023-01-26T15:21:21.921Z,98350.06
2023-01-26T15:23:58.134Z,98351.88
2023-01-26T15:26:32.717Z,98350.66
2023-01-26T15:29:06.148Z,98359.28
2023-01-26T15:31:42.690Z,98349.44
2023-01-26T15:34:35.176Z,98349.66
2023-01-26T15:37:31.541Z,98354.00
2023-01-26T15:40:01.982Z,98352.03
2023-01-26T15:42:33.363Z,98356.78
2023-01-26T15:45:03.512Z,98358.13
2023-01-26T15:47:33.739Z,98360.00
2023-01-26T15:50:04.459Z,98355.81
2023-01-26T15:52:37.414Z,98356.50
2023-01-26T15:55:24.446Z,98352.81
2023-01-26T15:57:55.165Z,98356.59
2023-01-26T16:00:25.822Z,98357.03
2023-01-26T16:02:55.964Z,98362.28
2023-01-26T16:05:27.997Z,98352.63
2023-01-26T16:08:00.887Z,98361.88
2023-01-26T16:10:31.252Z,98359.78
2023-01-26T16:13:01.323Z,98357.69
2023-01-26T16:15:43.034Z,98372.09
2023-01-26T16:18:13.625Z,98361.47
2023-01-26T16:20:47.019Z,98356.38
2023-01-26T16:23:24.597Z,98357.53
2023-01-26T16:25:55.450Z,98362.53
2023-01-26T16:28:25.999Z,98358.34
2023-01-26T16:30:56.252Z,98357.38
2023-01-26T16:33:26.614Z,98361.06
2023-01-26T16:35:57.385Z,98358.00
2023-01-26T16:38:30.085Z,98359.53
2023-01-26T16:41:00.748Z,98361.47
2023-01-26T16:43:31.743Z,98357.34
2023-01-26T16:46:01.888Z,98356.72
2023-01-26T16:48:35.446Z,98360.34
2023-01-26T16:51:20.239Z,98362.59
2023-01-26T16:53:54.205Z,98355.06
2023-01-26T16:56:26.032Z,98358.84
2023-01-26T16:58:56.127Z,98358.63
2023-01-26T17:01:30.560Z,98360.38
2023-01-26T17:04:01.483Z,98359.91
2023-01-26T17:06:32.253Z,98364.03
2023-01-26T17:09:05.511Z,98359.28
2023-01-26T17:11:35.981Z,98360.50
2023-01-26T17:14:06.447Z,98360.97
2023-01-26T17:16:37.181Z,98355.13
2023-01-26T17:19:09.274Z,98362.84
2023-01-26T17:21:39.588Z,98350.22
2023-01-26T17:24:13.163Z,98357.06
2023-01-26T17:26:43.158Z,98363.72
2023-01-26T17:29:14.873Z,98357.38
2023-01-26T17:31:45.371Z,98364.25
2023-01-26T17:34:16.659Z,98355.72
2023-01-26T17:36:46.822Z,98368.34
2023-01-26T17:39:19.795Z,98363.34
2023-01-26T17:41:49.768Z,98365.56
2023-01-26T17:44:19.957Z,98368.34
2023-01-26T17:46:50.180Z,98363.81
2023-01-26T17:49:21.539Z,98359.22
2023-01-26T17:51:51.849Z,98365.47
2023-01-26T17:54:25.064Z,98373.22
2023-01-26T17:56:55.638Z,98368.09
2023-01-26T17:59:26.001Z,98364.47
2023-01-26T18:01:56.698Z,98362.38
2023-01-26T18:04:27.167Z,98360.59
2023-01-26T18:06:57.629Z,98360.13
2023-01-26T18:09:30.585Z,98366.16
2023-01-26T18:12:01.032Z,98363.53
2023-01-26T18:14:31.365Z,98366.06
2023-01-26T18:17:01.909Z,98372.31
2023-01-26T18:19:32.006Z,98358.31
2023-01-26T18:22:02.208Z,98365.31
2023-01-26T18:24:36.715Z,98369.56
2023-01-26T18:27:07.716Z,98375.97
2023-01-26T18:29:37.840Z,98366.59
2023-01-26T18:32:09.227Z,98369.91
2023-01-26T18:34:41.814Z,98371.38
2023-01-26T18:37:12.750Z,98368.19
2023-01-26T18:39:46.012Z,98376.69
2023-01-26T18:42:16.206Z,98367.63
2023-01-26T18:44:46.371Z,98373.63
2023-01-26T18:47:16.518Z,98370.66
2023-01-26T18:49:46.909Z,98370.22
2023-01-26T18:52:17.023Z,98375.84
2023-01-26T18:54:50.030Z,98369.03
2023-01-26T18:57:20.487Z,98363.31
2023-01-26T18:59:50.744Z,98361.69
2023-01-26T19:02:21.180Z,98359.94
2023-01-26T19:04:53.642Z,98369.19
2023-01-26T19:07:24.799Z,98370.91
2023-01-26T19:09:57.518Z,98368.59
2023-01-26T19:12:27.569Z,98366.59
2023-01-26T19:14:57.768Z,98361.53
2023-01-26T19:17:28.074Z,98370.31
2023-01-26T19:19:58.117Z,98366.53
2023-01-26T19:22:28.808Z,98371.69
2023-01-26T19:25:01.613Z,98372.28
2023-01-26T19:27:34.068Z,98377.66
2023-01-26T19:30:04.301Z,98373.34
2023-01-26T19:32:34.419Z,98371.34
2023-01-26T19:35:04.985Z,98371.28
2023-01-26T19:37:35.091Z,98377.75
2023-01-26T19:40:09.844Z,98361.91
2023-01-26T19:42:42.337Z,98370.81
2023-01-26T19:45:14.085Z,98367.03
2023-01-26T19:47:44.706Z,98365.81
2023-01-26T19:50:14.966Z,98366.47
2023-01-26T19:52:45.233Z,98365.88
2023-01-26T19:55:18.481Z,98363.00
2023-01-26T19:57:48.587Z,98370.41
2023-01-26T20:00:20.379Z,98369.56
2023-01-26T20:02:50.815Z,98361.56
2023-01-26T20:05:21.507Z,98372.75
2023-01-26T20:07:51.817Z,98361.06
2023-01-26T20:10:24.877Z,98365.88
2023-01-26T20:12:57.337Z,98357.06
2023-01-26T20:15:27.765Z,98358.69
2023-01-26T20:17:58.128Z,98361.03
2023-01-26T20:20:42.931Z,98361.91
2023-01-26T20:23:13.205Z,98363.75
2023-01-26T20:25:46.819Z,98373.38
2023-01-26T20:28:17.823Z,98373.16
2023-01-26T20:30:48.244Z,98373.19
2023-01-26T20:33:18.297Z,98371.69
2023-01-26T20:35:48.273Z,98369.56
2023-01-26T20:38:18.696Z,98367.41
2023-01-26T20:40:51.690Z,98374.91
2023-01-26T20:43:21.959Z,98375.41
2023-01-26T20:45:52.105Z,98381.69
2023-01-26T20:48:22.169Z,98374.41
2023-01-26T20:50:53.272Z,98376.47
2023-01-26T20:53:23.264Z,98371.00
2023-01-26T20:56:02.730Z,98376.41
2023-01-26T20:58:33.111Z,98374.59
2023-01-26T21:01:07.981Z,98372.91
2023-01-26T21:03:39.923Z,98374.59
2023-01-26T21:06:13.118Z,98378.81
2023-01-26T21:08:44.085Z,98379.41
2023-01-26T21:11:19.738Z,98375.91
2023-01-26T21:13:49.720Z,98375.91
2023-01-26T21:16:21.266Z,98374.22
2023-01-26T21:18:51.719Z,98370.41
2023-01-26T21:21:22.975Z,98372.03
2023-01-26T21:23:54.321Z,98370.84
2023-01-26T21:26:28.995Z,98366.63
2023-01-26T21:29:02.433Z,98362.75
2023-01-26T21:31:35.161Z,98355.41
2023-01-26T21:34:05.359Z,98358.84
2023-01-26T21:36:36.739Z,98347.63
2023-01-26T21:39:10.856Z,98355.78
2023-01-26T21:41:59.644Z,98356.19
2023-01-26T21:44:32.359Z,98344.28
2023-01-26T21:47:05.783Z,98352.38
2023-01-26T21:49:36.030Z,98355.63
2023-01-26T21:52:18.669Z,98351.84
2023-01-26T21:54:48.862Z,98354.56
2023-01-26T21:57:33.752Z,98351.22
2023-01-26T22:00:03.960Z,98354.84
2023-01-26T22:02:34.868Z,98359.84
2023-01-26T22:05:05.117Z,98355.94
2023-01-26T22:07:35.156Z,98360.34
2023-01-26T22:10:06.270Z,98362.41
2023-01-26T22:12:38.905Z,98358.50
2023-01-26T22:15:11.807Z,98361.91
2023-01-26T22:17:42.049Z,98351.44
2023-01-26T22:20:15.043Z,98347.13
2023-01-26T22:22:45.678Z,98348.72
2023-01-26T22:25:16.228Z,98350.84
2023-01-26T22:27:49.300Z,98347.94
2023-01-26T22:30:20.213Z,98355.94
2023-01-26T22:32:50.320Z,98349.06
2023-01-26T22:35:20.492Z,98351.63
2023-01-26T22:37:50.839Z,98353.94
2023-01-26T22:40:22.243Z,98346.84
2023-01-26T22:42:55.693Z,98354.94
2023-01-26T22:45:26.041Z,98350.13
2023-01-26T22:47:56.075Z,98348.44
2023-01-26T22:50:26.143Z,98349.06
2023-01-26T22:52:57.714Z,98338.16
2023-01-26T22:55:27.840Z,98341.44
2023-01-26T22:58:00.724Z,98340.00
2023-01-26T23:00:31.081Z,98322.66
2023-01-26T23:03:01.307Z,98317.88
2023-01-26T23:05:33.685Z,98323.44
2023-01-26T23:08:04.707Z,98315.22
2023-01-26T23:10:35.144Z,98326.19
2023-01-26T23:13:08.239Z,98323.69
2023-01-26T23:15:40.572Z,98325.47
2023-01-26T23:18:10.642Z,98317.31
2023-01-26T23:20:40.786Z,98321.09
2023-01-26T23:23:10.896Z,98318.41
2023-01-26T23:25:56.080Z,98322.31
2023-01-26T23:28:31.612Z,98318.69
2023-01-26T23:31:03.005Z,98317.97
2023-01-26T23:33:36.006Z,98312.38
2023-01-26T23:36:08.441Z,98322.09
2023-01-26T23:38:39.226Z,98312.75
2023-01-26T23:41:09.731Z,98309.59
2023-01-26T23:43:43.147Z,98306.19
2023-01-26T23:46:15.098Z,98299.56
2023-01-26T23:48:45.240Z,98297.34
2023-01-26T23:51:16.055Z,98298.75
2023-01-26T23:53:46.133Z,98289.84
2023-01-26T23:56:19.277Z,98292.66
2023-01-26T23:58:53.225Z,98295.84
